<?xml version="1.0" encoding="UTF-8" standalone="no" ?>
<gpx xmlns="http://www.topografix.com/GPX/1/1" xmlns:xsi="http://www.w3.org/2001/XMLSchema-instance" xsi:schemaLocation="http://www.topografix.com/GPX/1/1 http://www.topografix.com/GPX/1/1/gpx.xsd" version="1.1" creator="VisuGPX - https://www.visugpx.com">
  <metadata>
    <name>LES Claires d'ARVERT ETAULES</name>
    <desc><![CDATA[PARCOURS MIXTE CHEMINS ROUTES à travers les plaines et Claires d'ETAULES et Arvers]]></desc>
  </metadata>
  <trk>
    <name><![CDATA[LES Claires d'ARVERT ETAULES_1]]></name>
    <extensions>
      <line xmlns="http://www.topografix.com/GPX/gpx_style/0/2">
        <color>0000FF</color>
        <width>4</width>
      </line>
    </extensions>
    <trkseg>
      <trkpt lat="45.73931" lon="-1.12941">
        <ele>20</ele>
        <time>2022-01-24T17:12:17Z</time>
      </trkpt>
      <trkpt lat="45.73957" lon="-1.13221">
        <ele>19</ele>
        <time>2022-01-24T17:15:04Z</time>
      </trkpt>
      <trkpt lat="45.74039" lon="-1.13372">
        <ele>19</ele>
        <time>2022-01-24T17:16:52Z</time>
      </trkpt>
      <trkpt lat="45.74494" lon="-1.1299">
        <ele>19</ele>
        <time>2022-01-24T17:24:01Z</time>
      </trkpt>
      <trkpt lat="45.74383" lon="-1.12843">
        <ele>22</ele>
        <time>2022-01-24T17:26:06Z</time>
      </trkpt>
      <trkpt lat="45.74885" lon="-1.1238">
        <ele>20</ele>
        <time>2022-01-24T17:34:08Z</time>
      </trkpt>
      <trkpt lat="45.74956" lon="-1.12195">
        <ele>20</ele>
        <time>2022-01-24T17:36:06Z</time>
      </trkpt>
      <trkpt lat="45.75144" lon="-1.12465">
        <ele>16</ele>
        <time>2022-01-24T17:39:49Z</time>
      </trkpt>
      <trkpt lat="45.7529" lon="-1.124">
        <ele>13</ele>
        <time>2022-01-24T17:41:52Z</time>
      </trkpt>
      <trkpt lat="45.75471" lon="-1.12771">
        <ele>12</ele>
        <time>2022-01-24T17:46:15Z</time>
      </trkpt>
      <trkpt lat="45.75755" lon="-1.12503">
        <ele>7</ele>
        <time>2022-01-24T17:50:49Z</time>
      </trkpt>
      <trkpt lat="45.75833" lon="-1.12509">
        <ele>7</ele>
        <time>2022-01-24T17:51:55Z</time>
      </trkpt>
      <trkpt lat="45.76122" lon="-1.12173">
        <ele>4</ele>
        <time>2022-01-24T17:56:55Z</time>
      </trkpt>
      <trkpt lat="45.75731" lon="-1.11582">
        <ele>4</ele>
        <time>2022-01-24T18:04:31Z</time>
      </trkpt>
      <trkpt lat="45.75783" lon="-1.11355">
        <ele>2</ele>
        <time>2022-01-24T18:07:15Z</time>
      </trkpt>
      <trkpt lat="45.75747" lon="-1.11398">
        <ele>2</ele>
        <time>2022-01-24T18:08:02Z</time>
      </trkpt>
      <trkpt lat="45.7573" lon="-1.11238">
        <ele>1</ele>
        <time>2022-01-24T18:09:33Z</time>
      </trkpt>
      <trkpt lat="45.75658" lon="-1.11104">
        <ele>2</ele>
        <time>2022-01-24T18:11:10Z</time>
      </trkpt>
      <trkpt lat="45.7573" lon="-1.1094">
        <ele>1</ele>
        <time>2022-01-24T18:13:01Z</time>
      </trkpt>
      <trkpt lat="45.75703" lon="-1.10908">
        <ele>1</ele>
        <time>2022-01-24T18:13:29Z</time>
      </trkpt>
      <trkpt lat="45.75738" lon="-1.10846">
        <ele>2</ele>
        <time>2022-01-24T18:14:14Z</time>
      </trkpt>
      <trkpt lat="45.75599" lon="-1.11122">
        <ele>2</ele>
        <time>2022-01-24T18:17:27Z</time>
      </trkpt>
      <trkpt lat="45.7563" lon="-1.11163">
        <ele>2</ele>
        <time>2022-01-24T18:18:02Z</time>
      </trkpt>
      <trkpt lat="45.75555" lon="-1.11315">
        <ele>2</ele>
        <time>2022-01-24T18:19:47Z</time>
      </trkpt>
      <trkpt lat="45.75492" lon="-1.11302">
        <ele>2</ele>
        <time>2022-01-24T18:20:39Z</time>
      </trkpt>
      <trkpt lat="45.7557" lon="-1.11147">
        <ele>2</ele>
        <time>2022-01-24T18:22:45Z</time>
      </trkpt>
      <trkpt lat="45.75485" lon="-1.11097">
        <ele>2</ele>
        <time>2022-01-24T18:24:06Z</time>
      </trkpt>
      <trkpt lat="45.75425" lon="-1.11169">
        <ele>2</ele>
        <time>2022-01-24T18:25:15Z</time>
      </trkpt>
      <trkpt lat="45.7546" lon="-1.11209">
        <ele>3</ele>
        <time>2022-01-24T18:25:50Z</time>
      </trkpt>
      <trkpt lat="45.75425" lon="-1.11286">
        <ele>2</ele>
        <time>2022-01-24T18:26:45Z</time>
      </trkpt>
      <trkpt lat="45.75491" lon="-1.11379">
        <ele>2</ele>
        <time>2022-01-24T18:28:01Z</time>
      </trkpt>
      <trkpt lat="45.7537" lon="-1.11257">
        <ele>3</ele>
        <time>2022-01-24T18:30:10Z</time>
      </trkpt>
      <trkpt lat="45.75468" lon="-1.11403">
        <ele>2</ele>
        <time>2022-01-24T18:32:05Z</time>
      </trkpt>
      <trkpt lat="45.7535" lon="-1.11584">
        <ele>3</ele>
        <time>2022-01-24T18:34:24Z</time>
      </trkpt>
      <trkpt lat="45.75257" lon="-1.11451">
        <ele>2</ele>
        <time>2022-01-24T18:36:10Z</time>
      </trkpt>
      <trkpt lat="45.75085" lon="-1.1146">
        <ele>3</ele>
        <time>2022-01-24T18:38:43Z</time>
      </trkpt>
      <trkpt lat="45.74851" lon="-1.1109">
        <ele>1</ele>
        <time>2022-01-24T18:43:33Z</time>
      </trkpt>
      <trkpt lat="45.74692" lon="-1.10568">
        <ele>2</ele>
        <time>2022-01-24T18:48:54Z</time>
      </trkpt>
      <trkpt lat="45.74598" lon="-1.10623">
        <ele>4</ele>
        <time>2022-01-24T18:50:29Z</time>
      </trkpt>
      <trkpt lat="45.7446" lon="-1.10156">
        <ele>5</ele>
        <time>2022-01-24T18:55:34Z</time>
      </trkpt>
      <trkpt lat="45.74071" lon="-1.10446">
        <ele>19</ele>
        <time>2022-01-24T19:01:27Z</time>
      </trkpt>
      <trkpt lat="45.73761" lon="-1.0954">
        <ele>18</ele>
        <time>2022-01-24T19:11:04Z</time>
      </trkpt>
      <trkpt lat="45.73427" lon="-1.09838">
        <ele>24</ele>
        <time>2022-01-24T19:16:30Z</time>
      </trkpt>
      <trkpt lat="45.7321" lon="-1.09879">
        <ele>22</ele>
        <time>2022-01-24T19:19:29Z</time>
      </trkpt>
      <trkpt lat="45.73055" lon="-1.10062">
        <ele>23</ele>
        <time>2022-01-24T19:22:10Z</time>
      </trkpt>
      <trkpt lat="45.72874" lon="-1.09936">
        <ele>23</ele>
        <time>2022-01-24T19:24:53Z</time>
      </trkpt>
      <trkpt lat="45.72398" lon="-1.10184">
        <ele>21</ele>
        <time>2022-01-24T19:31:41Z</time>
      </trkpt>
      <trkpt lat="45.72194" lon="-1.10388">
        <ele>21</ele>
        <time>2022-01-24T19:35:05Z</time>
      </trkpt>
      <trkpt lat="45.72198" lon="-1.10716">
        <ele>19</ele>
        <time>2022-01-24T19:38:16Z</time>
      </trkpt>
      <trkpt lat="45.7204" lon="-1.1089">
        <ele>20</ele>
        <time>2022-01-24T19:40:59Z</time>
      </trkpt>
      <trkpt lat="45.72216" lon="-1.10807">
        <ele>19.2</ele>
      </trkpt>
      <trkpt lat="45.72318" lon="-1.1082">
        <ele>14.9</ele>
      </trkpt>
      <trkpt lat="45.72342" lon="-1.10936">
        <ele>9.8</ele>
      </trkpt>
      <trkpt lat="45.72711" lon="-1.1155">
        <ele>2</ele>
      </trkpt>
      <trkpt lat="45.72642" lon="-1.1182">
        <ele>2</ele>
      </trkpt>
      <trkpt lat="45.72672" lon="-1.12013">
        <ele>3</ele>
      </trkpt>
      <trkpt lat="45.72657" lon="-1.12065">
        <ele>2.6</ele>
      </trkpt>
      <trkpt lat="45.72726" lon="-1.12232">
        <ele>3</ele>
      </trkpt>
      <trkpt lat="45.73064" lon="-1.11859">
        <ele>6.6</ele>
      </trkpt>
      <trkpt lat="45.73319" lon="-1.11653">
        <ele>7.5</ele>
      </trkpt>
      <trkpt lat="45.73421" lon="-1.11945">
        <ele>7</ele>
      </trkpt>
      <trkpt lat="45.73702" lon="-1.1285">
        <ele>11</ele>
      </trkpt>
      <trkpt lat="45.73915" lon="-1.1282">
        <ele>18.8</ele>
      </trkpt>
      <trkpt lat="45.73885" lon="-1.12958">
        <ele>18.6</ele>
      </trkpt>
      <trkpt lat="45.73931" lon="-1.12941">
        <ele>20</ele>
        <time>2022-01-24T17:12:17Z</time>
      </trkpt>
    </trkseg>
  </trk>
</gpx>